Airfield :
LOGIN :

Register | Disclaimer

   EN    FR    IT 

 










Legend :    VFR   Marginal VFR   IFR   Intensive IFR   Very Intensive IFR
Visi :
Ceiling :
>= 8 km
>= 3000ft
5 to 8 km
1000 to 3000 ft
1500m to 5 km
500 to 1000 ft
800 to 1500m
200 to 500 ft
< 800m
< 200 ft
Symbols :   Thunderstorms  Fog  Heavy snow  Heavy precipitations  Wind > 20 kt
SIGMETs :     Misc.  Thunderstorms  Icing  Turbulence  Mountain Waves  Volcanic Ashes






- Airport Elevation : 779 ft
- IATA code : CMF


LFLB - Chambery / Aix-Les-Bains

CURRENT METAR :
  • 181400Z AUTO 34014KT 9999 SCT060 BKN072 BKN082 11/01 Q1016 TEMPO 36020G35KT SHRA FEW040CB

EXPIRED METARs :
  • 181330Z AUTO 34015KT 9999 FEW041 BKN060 BKN072 11/02 Q1016 TEMPO 36020G35KT SHRA FEW040CB
  • 181300Z AUTO 34012KT 9999 BKN060 OVC076 10/01 Q1016 TEMPO 36020G35KT SHRA FEW040CB
  • 181230Z AUTO 34014KT 9999 BKN058 BKN074 10/00 Q1016 TEMPO 36020G35KT SHRA FEW040CB
  • 181200Z AUTO 36012KT 9999 FEW049 BKN060 BKN072 10/02 Q1016 BECMG 36015G25KT
  • 181130Z AUTO 34011KT 9999 BKN052 BKN070 BKN082 09/01 Q1016 BECMG 36015G25KT
  • 181100Z AUTO 36011KT 330V040 9999 FEW041/// BKN048/// BKN058/// ///TCU 08/00 Q1016 BECMG 36015G25KT SCT025 SCT050
  • 181030Z AUTO 03009KT 310V090 9999 FEW041 BKN047 BKN066 09/03 Q1016 BECMG 36015G25KT
  • 181000Z AUTO 36009KT 330V030 9999 BKN045 BKN056 BKN074 09/01 Q1016 BECMG 36015G25KT
  • 180930Z AUTO 01009KT 320V060 9999 BKN045 BKN056 BKN072 08/03 Q1016 BECMG 36015G25KT

TAF TAF LFLB
Valid from the 18 at 09:00 until the 19 at 09:00 UTC


180800Z 1809/1909 36010KT 9999 SCT025 SCT050
BECMG 1811/1813 36015G25KT
PROB30
TEMPO 1814/1818 36020G35KT SHRA FEW040CB
BECMG 1820/1824 36010KT
BECMG 1901/1903 VRB02KT CAVOK



MET'MAP, your aeronautical weather chart ! - Copyright ORBIFLY December 2007 - Disclaimer

ORBIFLY MET'MAP TEAM :

Programming & Development : Alexandra Zaïnal
Original concept : Baudouin d'Aumeries
Technical & hardware support : Manuel Goepfert
Assistance : Marc-Olivier Méhu




SOURCES & CREDITS :

   NOAA